createdAt,value
2019-01-19T00:00:15.362Z,0
2019-01-19T00:01:13.903Z,0
2019-01-19T00:02:12.440Z,0
2019-01-19T00:03:11.097Z,0
2019-01-19T00:04:09.681Z,0
2019-01-19T00:05:10.488Z,0
2019-01-19T00:06:06.991Z,0
2019-01-19T00:07:05.645Z,0
2019-01-19T00:08:04.438Z,0
2019-01-19T00:09:02.961Z,0
2019-01-19T00:10:01.472Z,0
2019-01-19T00:11:00.028Z,0
2019-01-19T00:11:58.575Z,0
2019-01-19T00:12:57.098Z,0
2019-01-19T00:13:56.375Z,0
2019-01-19T00:14:54.930Z,0
2019-01-19T00:15:53.546Z,0
2019-01-19T00:16:52.122Z,0
2019-01-19T00:17:50.665Z,0
2019-01-19T00:18:49.196Z,0
2019-01-19T00:19:47.736Z,0
2019-01-19T00:20:46.275Z,0
2019-01-19T00:21:44.814Z,0
2019-01-19T00:22:43.319Z,0
2019-01-19T00:23:41.853Z,0
2019-01-19T00:24:40.379Z,0
2019-01-19T00:25:38.984Z,0
2019-01-19T00:26:37.515Z,0
2019-01-19T00:27:36.413Z,0
2019-01-19T00:28:34.945Z,0
2019-01-19T00:29:33.461Z,0
2019-01-19T00:30:32.247Z,0
2019-01-19T00:31:30.784Z,0
2019-01-19T00:32:29.404Z,0
2019-01-19T00:33:27.898Z,0
2019-01-19T00:34:26.435Z,0
2019-01-19T00:35:25.209Z,0
2019-01-19T00:36:23.963Z,0
2019-01-19T00:37:22.528Z,0
2019-01-19T00:38:21.065Z,0
2019-01-19T00:39:19.682Z,0
2019-01-19T00:40:18.515Z,0
2019-01-19T00:41:17.065Z,0
2019-01-19T00:42:15.679Z,0
2019-01-19T00:43:14.254Z,0
2019-01-19T00:44:12.899Z,0
2019-01-19T00:45:11.422Z,0
2019-01-19T00:46:10.237Z,0
2019-01-19T00:47:08.780Z,0
2019-01-19T00:48:07.296Z,0
2019-01-19T00:49:06.096Z,0
2019-01-19T00:50:04.654Z,0
2019-01-19T00:51:03.161Z,0
2019-01-19T00:52:01.714Z,0
2019-01-19T00:53:00.249Z,0
2019-01-19T00:53:58.884Z,0
2019-01-19T00:56:39.057Z,0
2019-01-19T00:57:37.589Z,0
2019-01-19T00:58:36.418Z,0
2019-01-19T00:59:34.977Z,0
2019-01-19T01:00:33.602Z,0
2019-01-19T01:01:32.355Z,0
2019-01-19T01:02:30.891Z,0
2019-01-19T01:03:29.458Z,0
2019-01-19T01:04:28.481Z,0
2019-01-19T01:05:27.004Z,0
2019-01-19T01:06:25.673Z,0
2019-01-19T01:07:24.353Z,0
2019-01-19T01:08:22.884Z,0
2019-01-19T01:09:21.432Z,0
2019-01-19T01:10:19.965Z,0
2019-01-19T01:11:18.874Z,0
2019-01-19T01:12:17.445Z,0
2019-01-19T01:13:15.996Z,0
2019-01-19T01:15:38.935Z,0
2019-01-19T01:16:37.468Z,0
2019-01-19T01:17:35.969Z,0
2019-01-19T01:18:34.525Z,0
2019-01-19T01:19:33.053Z,0
2019-01-19T01:20:31.612Z,0
2019-01-19T01:21:30.447Z,0
2019-01-19T01:22:29.145Z,0
2019-01-19T01:23:27.598Z,0
2019-01-19T01:24:26.397Z,0
2019-01-19T01:25:24.952Z,0
2019-01-19T01:26:23.498Z,0
2019-01-19T01:27:22.044Z,0
2019-01-19T01:28:20.576Z,0
2019-01-19T01:29:19.101Z,0
2019-01-19T01:30:17.685Z,0
2019-01-19T01:31:16.192Z,0
2019-01-19T01:32:14.725Z,0
2019-01-19T01:33:13.257Z,0
2019-01-19T01:34:11.808Z,0
2019-01-19T01:35:10.698Z,0
2019-01-19T01:36:09.216Z,0
2019-01-19T01:37:07.848Z,0
2019-01-19T01:38:06.564Z,0
2019-01-19T01:39:05.088Z,0
2019-01-19T01:40:03.650Z,0
2019-01-19T01:41:02.239Z,0
2019-01-19T01:42:00.778Z,0
2019-01-19T01:42:59.318Z,0
2019-01-19T01:43:57.863Z,0
2019-01-19T01:44:56.381Z,0
2019-01-19T01:45:55.108Z,0
2019-01-19T01:46:53.630Z,0
2019-01-19T01:47:52.498Z,0
2019-01-19T01:48:51.041Z,0
2019-01-19T01:49:49.592Z,0
2019-01-19T01:50:48.408Z,0
2019-01-19T01:51:46.935Z,0
2019-01-19T01:52:45.469Z,0
2019-01-19T01:53:43.994Z,0
2019-01-19T01:54:42.508Z,0
2019-01-19T01:55:41.066Z,0
2019-01-19T01:56:39.905Z,0
2019-01-19T01:57:38.579Z,0
2019-01-19T01:58:37.138Z,0
2019-01-19T01:59:35.901Z,0
2019-01-19T02:00:34.538Z,0
2019-01-19T02:01:33.093Z,0
2019-01-19T02:02:31.626Z,0
2019-01-19T02:03:30.157Z,0
2019-01-19T02:04:28.696Z,0
2019-01-19T02:05:27.232Z,0
2019-01-19T02:06:25.809Z,0
2019-01-19T02:07:24.624Z,0
2019-01-19T02:08:23.190Z,0
2019-01-19T02:09:21.893Z,0
2019-01-19T02:10:20.568Z,0
2019-01-19T02:11:19.138Z,0
2019-01-19T02:12:17.757Z,0
2019-01-19T02:13:16.302Z,0
2019-01-19T02:14:14.858Z,0
2019-01-19T02:15:13.405Z,0
2019-01-19T02:16:11.937Z,0
2019-01-19T02:17:10.466Z,0
2019-01-19T02:18:08.980Z,0
2019-01-19T02:19:07.525Z,0
2019-01-19T02:20:06.426Z,0
2019-01-19T02:21:04.970Z,0
2019-01-19T02:22:03.502Z,0
2019-01-19T02:23:02.116Z,0
2019-01-19T02:24:00.793Z,0
2019-01-19T02:24:59.337Z,0
2019-01-19T02:25:57.967Z,0
2019-01-19T02:26:56.520Z,0
2019-01-19T02:27:55.062Z,0
2019-01-19T02:28:53.639Z,0
2019-01-19T02:29:52.167Z,0
2019-01-19T02:30:50.732Z,0
2019-01-19T02:31:49.266Z,0
2019-01-19T02:32:47.820Z,0
2019-01-19T02:33:46.735Z,0
2019-01-19T02:34:45.255Z,0
2019-01-19T02:35:48.282Z,0
2019-01-19T02:36:42.740Z,0
2019-01-19T02:37:41.271Z,0
2019-01-19T02:38:39.806Z,0
2019-01-19T02:39:38.357Z,0
2019-01-19T02:40:36.893Z,0
2019-01-19T02:41:35.573Z,0
2019-01-19T02:42:34.441Z,0
2019-01-19T02:43:32.988Z,0
2019-01-19T02:44:31.624Z,0
2019-01-19T02:45:30.331Z,0
2019-01-19T02:46:28.854Z,0
2019-01-19T02:47:27.397Z,0
2019-01-19T02:48:25.929Z,0
2019-01-19T02:49:24.476Z,0
2019-01-19T02:50:23.015Z,0
2019-01-19T02:51:21.567Z,0
2019-01-19T02:52:20.500Z,0
2019-01-19T02:53:19.029Z,0
2019-01-19T02:54:17.573Z,0
2019-01-19T02:55:16.439Z,0
2019-01-19T02:56:14.987Z,0
2019-01-19T02:57:13.519Z,0
2019-01-19T02:58:12.061Z,0
2019-01-19T02:59:10.617Z,0
2019-01-19T03:00:09.271Z,0
2019-01-19T03:01:07.799Z,0
2019-01-19T03:02:06.603Z,0
2019-01-19T03:03:05.164Z,0
2019-01-19T03:04:03.808Z,0
2019-01-19T03:05:02.600Z,0
2019-01-19T03:06:01.159Z,0
2019-01-19T03:06:59.722Z,0
2019-01-19T03:07:58.266Z,0
2019-01-19T03:08:56.856Z,0
2019-01-19T03:09:55.383Z,0
2019-01-19T03:10:54.348Z,0
2019-01-19T03:11:52.919Z,0
2019-01-19T03:12:51.460Z,0
2019-01-19T03:13:50.205Z,0
2019-01-19T03:14:48.744Z,0
2019-01-19T03:15:47.307Z,0
2019-01-19T03:16:45.844Z,0
2019-01-19T03:17:44.406Z,0
2019-01-19T03:18:42.953Z,0
2019-01-19T03:21:23.102Z,0
2019-01-19T03:22:21.654Z,0
2019-01-19T03:23:20.485Z,0
2019-01-19T03:24:19.028Z,0
2019-01-19T03:25:17.578Z,0
2019-01-19T03:26:16.233Z,0
2019-01-19T03:27:14.768Z,0
2019-01-19T03:28:13.312Z,0
2019-01-19T03:29:11.979Z,0
2019-01-19T03:30:10.534Z,0
2019-01-19T03:31:09.064Z,0
2019-01-19T03:32:07.594Z,0
2019-01-19T03:33:06.123Z,0
2019-01-19T03:34:04.653Z,0
2019-01-19T03:35:03.197Z,0
2019-01-19T03:36:04.431Z,0
2019-01-19T03:37:00.662Z,0
2019-01-19T03:37:59.196Z,0
2019-01-19T03:38:57.855Z,0
2019-01-19T03:39:56.555Z,0
2019-01-19T03:40:55.086Z,0
2019-01-19T03:41:53.623Z,0
2019-01-19T03:42:52.205Z,0
2019-01-19T03:43:50.759Z,0
2019-01-19T03:44:49.299Z,0
2019-01-19T03:45:47.844Z,0
2019-01-19T03:46:46.611Z,0
2019-01-19T03:47:45.152Z,0
2019-01-19T03:48:43.672Z,0
2019-01-19T03:49:42.409Z,0
2019-01-19T03:50:41.012Z,0
2019-01-19T03:51:39.517Z,0
2019-01-19T03:52:38.318Z,0
2019-01-19T03:53:36.852Z,0
2019-01-19T03:54:35.399Z,0
2019-01-19T03:55:33.961Z,0
2019-01-19T03:56:32.489Z,0
2019-01-19T03:57:31.029Z,0
2019-01-19T03:58:29.577Z,0
2019-01-19T03:59:28.213Z,0
2019-01-19T04:00:26.853Z,0
2019-01-19T04:01:25.409Z,0
2019-01-19T04:02:24.128Z,0
2019-01-19T04:03:22.829Z,0
2019-01-19T04:04:21.367Z,0
2019-01-19T04:05:19.994Z,0
2019-01-19T04:06:18.548Z,0
2019-01-19T04:07:17.085Z,0
2019-01-19T04:08:15.644Z,0
2019-01-19T04:09:14.199Z,0
2019-01-19T04:10:12.740Z,0
2019-01-19T04:11:11.291Z,0
2019-01-19T04:12:09.847Z,0
2019-01-19T04:13:08.662Z,0
2019-01-19T04:14:07.410Z,0
2019-01-19T04:15:06.103Z,0
2019-01-19T04:16:04.663Z,0
2019-01-19T04:17:03.203Z,0
2019-01-19T04:18:01.963Z,0
2019-01-19T04:19:00.613Z,0
2019-01-19T04:19:59.130Z,0
2019-01-19T04:20:57.646Z,0
2019-01-19T04:21:56.459Z,0
2019-01-19T04:22:55.020Z,0
2019-01-19T04:23:53.693Z,0
2019-01-19T04:24:52.338Z,0
2019-01-19T04:25:50.932Z,0
2019-01-19T04:26:49.459Z,0
2019-01-19T04:27:48.026Z,0
2019-01-19T04:28:46.687Z,0
2019-01-19T04:29:45.235Z,0
2019-01-19T04:30:43.858Z,0
2019-01-19T04:31:42.559Z,0
2019-01-19T04:32:41.096Z,0
2019-01-19T04:33:39.632Z,0
2019-01-19T04:34:38.308Z,0
2019-01-19T04:35:36.933Z,0
2019-01-19T04:36:35.495Z,0
2019-01-19T04:37:34.050Z,0
2019-01-19T04:38:33.642Z,0
2019-01-19T04:39:31.133Z,0
2019-01-19T04:40:29.678Z,0
2019-01-19T04:41:28.232Z,0
2019-01-19T04:42:26.780Z,0
2019-01-19T04:43:25.288Z,0
2019-01-19T04:44:23.833Z,0
2019-01-19T04:45:22.508Z,0
2019-01-19T04:46:21.060Z,0
2019-01-19T04:47:19.605Z,0
2019-01-19T04:48:18.374Z,0
2019-01-19T04:49:16.917Z,0
2019-01-19T04:50:15.443Z,0
2019-01-19T04:51:14.268Z,0
2019-01-19T04:52:12.817Z,0
2019-01-19T04:53:11.356Z,0
2019-01-19T04:54:09.898Z,0
2019-01-19T04:55:08.425Z,0
2019-01-19T04:56:07.081Z,0
2019-01-19T04:57:05.618Z,0
2019-01-19T04:58:04.564Z,0
2019-01-19T04:59:03.106Z,0
2019-01-19T05:00:01.644Z,0
2019-01-19T05:01:00.424Z,0
2019-01-19T05:01:58.979Z,0
2019-01-19T05:02:57.611Z,0
2019-01-19T05:03:56.184Z,0
2019-01-19T05:04:54.691Z,0
2019-01-19T05:05:53.228Z,0
2019-01-19T05:06:51.757Z,0
2019-01-19T05:07:50.586Z,0
2019-01-19T05:08:49.115Z,0
2019-01-19T05:09:47.813Z,0
2019-01-19T05:10:46.590Z,0
2019-01-19T05:11:45.102Z,0
2019-01-19T05:12:43.632Z,0
2019-01-19T05:13:42.193Z,0
2019-01-19T05:14:40.718Z,0
2019-01-19T05:15:39.267Z,0
2019-01-19T05:16:37.857Z,0
2019-01-19T05:17:36.760Z,0
2019-01-19T05:18:35.286Z,0
2019-01-19T05:19:33.910Z,0
2019-01-19T05:20:32.598Z,0
2019-01-19T05:21:31.156Z,0
2019-01-19T05:22:29.691Z,0
2019-01-19T05:23:28.329Z,0
2019-01-19T05:24:26.876Z,0
2019-01-19T05:25:25.427Z,0
2019-01-19T05:26:23.990Z,0
2019-01-19T05:27:22.511Z,0
2019-01-19T05:28:21.189Z,0
2019-01-19T05:29:19.784Z,0
2019-01-19T05:30:18.521Z,0
2019-01-19T05:31:17.208Z,0
2019-01-19T05:32:15.688Z,0
2019-01-19T05:33:14.422Z,0
2019-01-19T05:34:12.949Z,0
2019-01-19T05:35:11.480Z,0
2019-01-19T05:36:10.091Z,0
2019-01-19T05:37:08.627Z,0
2019-01-19T05:38:07.173Z,0
2019-01-19T05:39:05.714Z,0
2019-01-19T05:40:04.242Z,0
2019-01-19T05:41:02.813Z,0
2019-01-19T05:42:01.366Z,0
2019-01-19T05:42:59.920Z,0
2019-01-19T05:43:58.786Z,0
2019-01-19T05:44:57.335Z,0
2019-01-19T05:45:55.882Z,0
2019-01-19T05:46:54.681Z,0
2019-01-19T05:47:53.225Z,0
2019-01-19T05:48:51.779Z,0
2019-01-19T05:49:50.306Z,0
2019-01-19T05:50:48.846Z,0
2019-01-19T05:51:47.379Z,0
2019-01-19T05:52:45.932Z,0
2019-01-19T05:53:44.500Z,0
2019-01-19T05:54:43.091Z,0
2019-01-19T05:55:43.730Z,0
2019-01-19T05:56:42.380Z,0
2019-01-19T05:57:40.917Z,0
2019-01-19T05:58:39.469Z,0
2019-01-19T05:59:38.425Z,0
2019-01-19T06:00:37.006Z,0
2019-01-19T06:01:35.552Z,0
2019-01-19T06:02:34.106Z,0
2019-01-19T06:03:32.777Z,0
2019-01-19T06:04:31.297Z,0
2019-01-19T06:08:10.636Z,0
2019-01-19T06:09:09.145Z,0
2019-01-19T06:10:07.702Z,0
2019-01-19T06:11:06.619Z,0
2019-01-19T06:12:05.169Z,0
2019-01-19T06:13:03.703Z,0
2019-01-19T06:14:02.484Z,0
2019-01-19T06:15:01.076Z,0
2019-01-19T06:15:59.605Z,0
2019-01-19T06:16:58.146Z,0
2019-01-19T06:17:56.696Z,0
2019-01-19T06:18:55.352Z,0
2019-01-19T06:19:53.981Z,0
2019-01-19T06:20:52.655Z,0
2019-01-19T06:21:51.201Z,0
2019-01-19T06:22:49.812Z,0
2019-01-19T06:23:48.458Z,0
2019-01-19T06:24:46.975Z,0
2019-01-19T06:25:45.523Z,0
2019-01-19T06:26:44.306Z,0
2019-01-19T06:27:42.847Z,0
2019-01-19T06:28:41.391Z,0
2019-01-19T06:29:40.033Z,0
2019-01-19T06:30:38.793Z,0
2019-01-19T06:31:37.338Z,0
2019-01-19T06:32:35.982Z,0
2019-01-19T06:33:34.658Z,0
2019-01-19T06:34:33.189Z,0
2019-01-19T06:35:31.754Z,0
2019-01-19T06:36:30.315Z,0
2019-01-19T06:37:28.846Z,0
2019-01-19T06:38:27.375Z,0
2019-01-19T06:39:25.911Z,0
2019-01-19T06:40:24.469Z,0
2019-01-19T06:41:23.011Z,0
2019-01-19T06:42:21.545Z,0
2019-01-19T06:43:20.100Z,0
2019-01-19T06:44:18.652Z,4
2019-01-19T06:45:17.201Z,4
2019-01-19T06:46:15.731Z,0
2019-01-19T06:47:14.468Z,0
2019-01-19T06:48:13.029Z,4
2019-01-19T06:49:11.709Z,4
2019-01-19T06:50:10.546Z,4
2019-01-19T06:51:09.069Z,8
2019-01-19T06:52:07.616Z,8
2019-01-19T06:53:06.239Z,8
2019-01-19T06:54:04.799Z,12
2019-01-19T06:55:03.348Z,12
2019-01-19T06:56:01.871Z,12
2019-01-19T06:57:00.593Z,16
2019-01-19T06:57:59.170Z,12
2019-01-19T06:58:57.697Z,16
2019-01-19T06:59:56.434Z,20
2019-01-19T07:00:54.996Z,24
2019-01-19T07:01:53.522Z,24
2019-01-19T07:02:52.120Z,32
2019-01-19T07:03:50.644Z,36
2019-01-19T07:04:49.209Z,36
2019-01-19T07:05:47.861Z,44
2019-01-19T07:06:46.425Z,48
2019-01-19T07:07:44.978Z,56
2019-01-19T07:08:43.511Z,60
2019-01-19T07:09:42.053Z,64
2019-01-19T07:10:40.686Z,72
2019-01-19T07:11:39.241Z,76
2019-01-19T07:12:38.114Z,88
2019-01-19T07:13:36.784Z,96
2019-01-19T07:14:35.360Z,100
2019-01-19T07:15:34.005Z,112
2019-01-19T07:16:32.579Z,120
2019-01-19T07:17:31.207Z,128
2019-01-19T07:18:29.706Z,136
2019-01-19T07:19:28.456Z,148
2019-01-19T07:20:27.143Z,156
2019-01-19T07:21:25.805Z,164
2019-01-19T07:22:24.639Z,176
2019-01-19T07:23:23.270Z,184
2019-01-19T07:24:21.825Z,196
2019-01-19T07:25:20.415Z,208
2019-01-19T07:26:19.096Z,216
2019-01-19T07:27:17.645Z,224
2019-01-19T07:28:16.417Z,232
2019-01-19T07:29:14.970Z,236
2019-01-19T07:31:55.310Z,256
2019-01-19T07:32:53.849Z,264
2019-01-19T07:33:52.439Z,276
2019-01-19T07:34:50.993Z,284
2019-01-19T07:35:49.528Z,292
2019-01-19T07:36:48.480Z,304
2019-01-19T07:37:47.581Z,316
2019-01-19T07:38:46.415Z,328
2019-01-19T07:39:45.009Z,336
2019-01-19T07:40:43.498Z,348
2019-01-19T07:41:42.282Z,360
2019-01-19T07:42:40.871Z,372
2019-01-19T07:43:39.481Z,388
2019-01-19T07:44:38.068Z,404
2019-01-19T07:45:36.896Z,420
2019-01-19T07:46:35.508Z,436
2019-01-19T07:47:35.812Z,448
2019-01-19T07:48:32.862Z,472
2019-01-19T07:49:31.426Z,492
2019-01-19T07:50:29.973Z,512
2019-01-19T07:51:28.508Z,528
2019-01-19T07:52:27.065Z,544
2019-01-19T07:53:25.603Z,552
2019-01-19T07:54:24.135Z,560
2019-01-19T07:55:22.689Z,572
2019-01-19T07:56:21.249Z,584
2019-01-19T07:57:19.786Z,604
2019-01-19T07:58:18.693Z,616
2019-01-19T07:59:17.252Z,636
2019-01-19T08:00:15.842Z,652
2019-01-19T08:01:14.585Z,668
2019-01-19T08:02:13.178Z,684
2019-01-19T08:03:11.740Z,700
2019-01-19T08:04:10.301Z,716
2019-01-19T08:05:08.832Z,732
2019-01-19T08:06:07.380Z,748
2019-01-19T08:07:05.964Z,768
2019-01-19T08:08:04.833Z,788
2019-01-19T08:09:03.403Z,804
2019-01-19T08:10:02.234Z,824
2019-01-19T08:11:00.775Z,848
2019-01-19T08:11:59.289Z,868
2019-01-19T08:12:57.817Z,888
2019-01-19T08:13:56.370Z,908
2019-01-19T08:14:55.238Z,924
2019-01-19T08:17:39.513Z,980
2019-01-19T08:18:38.153Z,996
2019-01-19T08:19:36.729Z,1004
2019-01-19T08:20:35.283Z,1016
2019-01-19T08:21:33.825Z,1028
2019-01-19T08:22:32.449Z,1036
2019-01-19T08:23:31.013Z,1044
2019-01-19T08:24:29.621Z,1052
2019-01-19T08:25:28.652Z,1064
2019-01-19T08:26:27.232Z,1068
2019-01-19T08:27:25.809Z,1076
2019-01-19T08:28:24.358Z,1084
2019-01-19T08:29:22.900Z,1092
2019-01-19T08:30:21.471Z,1096
2019-01-19T08:31:20.018Z,1104
2019-01-19T08:34:00.018Z,1124
2019-01-19T08:34:58.626Z,1120
2019-01-19T08:35:57.154Z,1128
2019-01-19T08:36:55.722Z,1132
2019-01-19T08:37:54.619Z,1132
2019-01-19T08:38:53.187Z,1136
2019-01-19T08:39:51.853Z,1136
2019-01-19T08:40:50.453Z,1132
2019-01-19T08:41:49.021Z,1124
2019-01-19T08:42:47.619Z,1120
2019-01-19T08:43:46.177Z,1112
2019-01-19T08:44:44.907Z,1108
2019-01-19T08:45:43.440Z,1104
2019-01-19T08:46:42.280Z,1096
2019-01-19T08:47:40.942Z,1096
2019-01-19T08:48:39.541Z,1092
2019-01-19T08:49:38.144Z,1084
2019-01-19T08:50:36.699Z,1080
2019-01-19T08:51:35.372Z,1076
2019-01-19T08:52:33.952Z,1072
2019-01-19T08:53:32.938Z,1064
2019-01-19T08:54:31.476Z,1060
2019-01-19T08:55:30.183Z,1056
2019-01-19T08:59:09.104Z,1056
2019-01-19T09:01:49.510Z,1056
2019-01-19T09:02:48.113Z,1056
2019-01-19T09:03:46.733Z,1052
2019-01-19T09:04:45.301Z,1052
2019-01-19T09:05:43.860Z,1056
2019-01-19T09:06:42.717Z,1060
2019-01-19T09:07:41.288Z,1064
2019-01-19T09:08:39.913Z,1068
2019-01-19T09:09:38.750Z,1064
2019-01-19T09:10:37.330Z,1064
2019-01-19T09:11:35.885Z,1068
2019-01-19T09:12:34.775Z,1068
2019-01-19T09:13:33.480Z,1072
2019-01-19T09:14:32.041Z,1076
2019-01-19T09:15:30.913Z,1076
2019-01-19T09:16:29.465Z,1076
2019-01-19T09:17:28.049Z,1080
2019-01-19T09:18:26.856Z,1084
2019-01-19T09:19:25.487Z,1080
2019-01-19T09:20:24.341Z,1088
2019-01-19T09:21:22.899Z,1088
2019-01-19T09:22:21.503Z,1088
2019-01-19T09:23:20.094Z,1088
2019-01-19T09:24:18.942Z,1088
2019-01-19T09:25:17.503Z,1088
2019-01-19T09:26:16.169Z,1092
2019-01-19T09:27:15.886Z,1096
2019-01-19T09:28:14.532Z,1100
2019-01-19T09:31:08.916Z,1108
2019-01-19T09:34:47.498Z,1116
2019-01-19T09:35:46.169Z,1116
2019-01-19T09:36:44.850Z,1116
2019-01-19T09:37:43.382Z,1120
2019-01-19T09:38:42.242Z,1124
2019-01-19T09:39:40.948Z,1128
2019-01-19T09:40:39.482Z,1132
2019-01-19T09:41:38.105Z,1132
2019-01-19T09:42:36.674Z,1140
2019-01-19T09:43:35.202Z,1144
2019-01-19T09:44:33.774Z,1152
2019-01-19T09:45:32.668Z,1144
2019-01-19T09:46:31.098Z,1156
2019-01-19T09:47:29.867Z,1156
2019-01-19T09:48:28.769Z,1160
2019-01-19T09:49:27.367Z,1168
2019-01-19T09:50:25.921Z,1164
2019-01-19T09:51:24.840Z,1172
2019-01-19T09:52:23.406Z,1172
2019-01-19T09:53:21.971Z,1172
2019-01-19T09:54:20.826Z,1176
2019-01-19T09:55:19.404Z,1184
2019-01-19T09:56:18.619Z,1184
2019-01-19T09:57:16.542Z,1188
2019-01-19T09:58:15.067Z,1188
2019-01-19T09:59:13.632Z,1184
2019-01-19T10:00:12.550Z,1192
2019-01-19T10:01:11.128Z,1192
2019-01-19T10:02:09.649Z,1192
2019-01-19T10:03:09.038Z,1196
2019-01-19T10:04:07.642Z,1196
2019-01-19T10:06:24.517Z,1212
2019-01-19T10:07:23.089Z,1212
2019-01-19T10:08:21.640Z,1208
2019-01-19T10:09:20.452Z,1216
2019-01-19T10:10:19.150Z,1216
2019-01-19T10:11:17.770Z,1220
2019-01-19T10:12:16.666Z,1224
2019-01-19T10:13:15.219Z,1224
2019-01-19T10:14:13.791Z,1224
2019-01-19T10:15:12.761Z,1224
2019-01-19T10:16:11.340Z,1228
2019-01-19T10:17:10.152Z,1228
2019-01-19T10:18:08.767Z,1232
2019-01-19T10:19:07.326Z,1232
2019-01-19T10:20:05.880Z,1236
2019-01-19T10:21:04.681Z,1240
2019-01-19T10:22:03.261Z,1240
2019-01-19T10:23:01.930Z,1248
2019-01-19T10:24:00.760Z,1252
2019-01-19T10:24:59.336Z,1248
2019-01-19T10:25:57.905Z,1252
2019-01-19T10:26:56.774Z,1248
2019-01-19T10:27:55.317Z,1252
2019-01-19T10:28:54.011Z,1252
2019-01-19T10:29:52.997Z,1252
2019-01-19T10:30:51.687Z,1248
2019-01-19T10:31:50.491Z,1248
2019-01-19T10:32:49.068Z,1244
2019-01-19T10:33:47.643Z,1244
2019-01-19T10:34:46.381Z,1244
2019-01-19T10:35:44.927Z,1244
2019-01-19T10:36:43.689Z,1248
2019-01-19T10:37:42.590Z,1248
2019-01-19T10:38:41.151Z,1252
2019-01-19T10:39:39.719Z,1256
2019-01-19T10:40:38.490Z,1252
2019-01-19T10:41:40.938Z,1252
2019-01-19T10:42:36.184Z,1252
2019-01-19T10:43:34.838Z,1244
2019-01-19T10:44:33.412Z,1244
2019-01-19T10:45:32.022Z,1240
2019-01-19T10:46:30.595Z,1236
2019-01-19T10:47:29.170Z,1236
2019-01-19T10:48:27.832Z,1232
2019-01-19T10:51:08.275Z,1224
2019-01-19T10:52:07.147Z,1216
2019-01-19T10:53:05.723Z,1220
2019-01-19T10:54:04.834Z,1216
2019-01-19T10:55:03.495Z,1216
2019-01-19T10:56:02.097Z,1212
2019-01-19T10:57:00.641Z,1204
2019-01-19T10:57:59.232Z,1204
2019-01-19T10:58:57.793Z,1200
2019-01-19T10:59:56.413Z,1196
2019-01-19T11:03:35.295Z,1200
2019-01-19T11:04:33.831Z,1196
2019-01-19T11:07:18.071Z,1200
2019-01-19T11:08:16.645Z,1200
2019-01-19T11:09:15.217Z,1208
2019-01-19T11:10:13.787Z,1212
2019-01-19T11:11:12.696Z,1216
2019-01-19T11:12:11.284Z,1216
2019-01-19T11:13:10.036Z,1220
2019-01-19T11:16:49.064Z,1220
2019-01-19T11:19:29.095Z,1224
2019-01-19T11:20:27.767Z,1224
2019-01-19T11:21:26.484Z,1228
2019-01-19T11:24:06.751Z,1236
2019-01-19T11:25:05.288Z,1228
2019-01-19T11:26:04.281Z,1232
2019-01-19T11:27:02.974Z,1236
2019-01-19T11:28:01.583Z,1244
2019-01-19T11:29:00.131Z,1248
2019-01-19T11:31:23.039Z,1264
2019-01-19T11:32:21.588Z,1268
2019-01-19T11:33:20.391Z,1264
2019-01-19T11:34:18.968Z,1268
2019-01-19T11:35:17.514Z,1280
2019-01-19T11:36:16.084Z,1292
2019-01-19T11:37:14.720Z,1308
2019-01-19T11:38:19.879Z,1344
2019-01-19T11:39:11.795Z,1392
2019-01-19T11:40:10.730Z,1452
2019-01-19T11:41:09.270Z,1488
2019-01-19T11:42:07.792Z,1484
2019-01-19T11:43:06.692Z,1492
2019-01-19T11:44:05.259Z,1500
2019-01-19T11:45:03.794Z,1508
2019-01-19T11:46:02.801Z,1520
2019-01-19T11:47:01.698Z,1524
2019-01-19T11:48:00.223Z,1500
2019-01-19T11:48:58.794Z,1460
2019-01-19T11:49:57.421Z,1464
2019-01-19T11:52:00.471Z,1652
2019-01-19T11:52:59.120Z,1716
2019-01-19T11:53:57.686Z,1596
2019-01-19T11:54:56.789Z,1540
2019-01-19T11:55:55.306Z,1500
2019-01-19T11:56:53.854Z,1448
2019-01-19T11:57:52.807Z,1448
2019-01-19T11:58:51.339Z,1476
2019-01-19T11:59:49.925Z,1496
2019-01-19T12:00:48.739Z,1496
2019-01-19T12:03:13.654Z,1460
2019-01-19T12:04:12.490Z,1428
2019-01-19T12:05:11.043Z,1412
2019-01-19T12:06:09.594Z,1408
2019-01-19T12:07:08.173Z,1412
2019-01-19T12:08:06.743Z,1404
2019-01-19T12:09:05.283Z,1396
2019-01-19T12:10:03.840Z,1384
2019-01-19T12:12:44.284Z,1372
2019-01-19T12:15:24.605Z,1384
2019-01-19T12:16:23.146Z,1388
2019-01-19T12:17:21.693Z,1380
2019-01-19T12:18:20.284Z,1372
2019-01-19T12:19:19.093Z,1380
2019-01-19T12:20:17.683Z,1380
2019-01-19T12:21:16.648Z,1380
2019-01-19T12:22:15.180Z,1380
2019-01-19T12:23:13.735Z,1384
2019-01-19T12:24:12.279Z,1376
2019-01-19T12:25:10.814Z,1380
2019-01-19T12:26:09.367Z,1388
2019-01-19T12:27:08.071Z,1404
2019-01-19T12:28:06.778Z,1424
2019-01-19T12:29:05.321Z,1440
2019-01-19T12:30:03.852Z,1428
2019-01-19T12:31:02.458Z,1416
2019-01-19T12:33:42.963Z,1448
2019-01-19T12:34:41.560Z,1408
2019-01-19T12:37:21.819Z,1384
2019-01-19T12:38:26.699Z,1384
2019-01-19T12:39:19.210Z,1388
2019-01-19T12:40:17.759Z,1388
2019-01-19T12:41:16.385Z,1396
2019-01-19T12:42:15.097Z,1408
2019-01-19T12:43:13.650Z,1400
2019-01-19T12:44:16.380Z,1392
2019-01-19T12:45:15.018Z,1384
2019-01-19T12:46:13.591Z,1384
2019-01-19T12:47:12.220Z,1392
2019-01-19T12:48:11.813Z,1384
2019-01-19T12:49:09.582Z,1372
2019-01-19T12:50:08.434Z,1356
2019-01-19T12:51:07.105Z,1348
2019-01-19T12:52:05.650Z,1344
2019-01-19T12:54:28.329Z,1340
2019-01-19T12:55:27.089Z,1340
2019-01-19T12:56:25.638Z,1336
2019-01-19T12:57:24.432Z,1332
2019-01-19T12:58:23.171Z,1324
2019-01-19T12:59:21.589Z,1320
2019-01-19T13:00:23.145Z,1324
2019-01-19T13:01:21.643Z,1324
2019-01-19T13:02:20.235Z,1328
2019-01-19T13:03:18.960Z,1328
2019-01-19T13:04:17.579Z,1332
2019-01-19T13:05:16.498Z,1324
2019-01-19T13:07:31.662Z,1324
2019-01-19T13:08:34.451Z,1320
2019-01-19T13:09:29.275Z,1320
2019-01-19T13:10:27.805Z,1320
2019-01-19T13:11:26.405Z,1320
2019-01-19T13:12:25.033Z,1316
2019-01-19T13:13:23.591Z,1316
2019-01-19T13:14:22.156Z,1316
2019-01-19T13:15:20.929Z,1312
2019-01-19T13:16:19.496Z,1308
2019-01-19T13:17:18.177Z,1304
2019-01-19T13:18:16.973Z,1300
2019-01-19T13:19:15.493Z,1296
2019-01-19T13:20:14.042Z,1296
2019-01-19T13:21:12.580Z,1292
2019-01-19T13:22:11.120Z,1288
2019-01-19T13:23:09.640Z,1284
2019-01-19T13:24:08.211Z,1280
2019-01-19T13:25:06.826Z,1276
2019-01-19T13:26:05.369Z,1276
2019-01-19T13:27:03.929Z,1276
2019-01-19T13:28:02.836Z,1268
2019-01-19T13:29:01.364Z,1264
2019-01-19T13:29:59.889Z,1256
2019-01-19T13:30:58.682Z,1256
2019-01-19T13:31:57.237Z,1252
2019-01-19T13:32:55.760Z,1252
2019-01-19T13:33:54.286Z,1248
2019-01-19T13:34:52.820Z,1244
2019-01-19T13:35:51.417Z,1244
2019-01-19T13:36:50.020Z,1248
2019-01-19T13:37:48.829Z,1248
2019-01-19T13:38:47.398Z,1240
2019-01-19T13:39:46.068Z,1240
2019-01-19T13:44:11.897Z,1224
2019-01-19T13:47:10.261Z,1224
2019-01-19T13:48:09.152Z,1220
2019-01-19T13:50:53.287Z,1212
2019-01-19T13:51:51.866Z,1212
2019-01-19T13:54:31.959Z,1204
2019-01-19T13:57:16.055Z,1192
2019-01-19T14:02:36.774Z,1172
2019-01-19T14:03:35.312Z,1168
2019-01-19T14:04:33.861Z,1168
2019-01-19T14:05:32.681Z,1164
2019-01-19T14:06:31.249Z,1160
2019-01-19T14:07:29.801Z,1160
2019-01-19T14:08:28.450Z,1156
2019-01-19T14:17:28.859Z,1112
2019-01-19T14:18:27.493Z,1108
2019-01-19T14:23:48.310Z,1084
2019-01-19T14:24:47.035Z,1080
2019-01-19T14:28:26.403Z,1056
2019-01-19T14:29:25.061Z,1056
2019-01-19T14:30:23.638Z,1048
2019-01-19T14:33:03.656Z,1036
2019-01-19T14:34:02.232Z,1032
2019-01-19T14:36:42.879Z,1016
2019-01-19T14:37:42.003Z,1008
2019-01-19T14:40:26.283Z,984
2019-01-19T14:41:25.164Z,980
2019-01-19T14:56:54.997Z,860
2019-01-19T14:57:53.627Z,852
2019-01-19T15:01:01.336Z,824
2019-01-19T15:02:00.101Z,816
2019-01-19T15:02:58.910Z,808
2019-01-19T15:03:57.520Z,800
2019-01-19T15:06:37.510Z,776
2019-01-19T15:07:36.031Z,764
2019-01-19T15:08:34.648Z,752
2019-01-19T15:09:34.410Z,744
2019-01-19T15:10:32.673Z,732
2019-01-19T15:11:31.370Z,724
2019-01-19T15:14:11.519Z,692
2019-01-19T15:15:10.148Z,688
2019-01-19T15:16:09.033Z,672
2019-01-19T15:17:07.650Z,664
2019-01-19T15:19:42.654Z,632
2019-01-19T15:20:41.181Z,624
2019-01-19T15:21:39.822Z,612
2019-01-19T15:26:02.033Z,556
2019-01-19T15:27:00.543Z,544
2019-01-19T15:29:40.652Z,508
2019-01-19T15:30:39.454Z,500
2019-01-19T15:31:38.107Z,484
2019-01-19T15:32:36.775Z,472
2019-01-19T15:33:35.311Z,456
2019-01-19T15:34:33.895Z,444
2019-01-19T15:35:32.543Z,428